sensor_id;sensor_type;location;lat;lon;timestamp;temperature;humidity
19242;DHT22;9755;47.790;9.620;2022-12-18T00:02:15;-4.80;1.00
19242;DHT22;9755;47.790;9.620;2022-12-18T00:04:42;-4.80;1.00
19242;DHT22;9755;47.790;9.620;2022-12-18T00:07:09;-4.80;1.00
19242;DHT22;9755;47.790;9.620;2022-12-18T00:09:37;-4.70;1.00
19242;DHT22;9755;47.790;9.620;2022-12-18T00:12:04;-4.70;1.00
19242;DHT22;9755;47.790;9.620;2022-12-18T00:14:33;-4.70;1.00
19242;DHT22;9755;47.790;9.620;2022-12-18T00:17:00;-4.70;1.00
19242;DHT22;9755;47.790;9.620;2022-12-18T00:19:27;-4.70;1.00
19242;DHT22;9755;47.790;9.620;2022-12-18T00:21:54;-4.70;1.00
19242;DHT22;9755;47.790;9.620;2022-12-18T00:24:21;-4.70;1.00
19242;DHT22;9755;47.790;9.620;2022-12-18T00:26:48;-4.70;1.00
19242;DHT22;9755;47.790;9.620;2022-12-18T00:29:15;-4.60;1.00
19242;DHT22;9755;47.790;9.620;2022-12-18T00:31:44;-4.70;1.00
19242;DHT22;9755;47.790;9.620;2022-12-18T00:34:11;-4.70;1.00
19242;DHT22;9755;47.790;9.620;2022-12-18T00:36:54;-4.70;1.00
19242;DHT22;9755;47.790;9.620;2022-12-18T00:39:21;-4.70;1.00
19242;DHT22;9755;47.790;9.620;2022-12-18T00:41:48;-4.70;1.00
19242;DHT22;9755;47.790;9.620;2022-12-18T00:44:33;-4.70;1.00
19242;DHT22;9755;47.790;9.620;2022-12-18T00:47:01;-4.70;1.00
19242;DHT22;9755;47.790;9.620;2022-12-18T00:49:28;-4.70;1.00
19242;DHT22;9755;47.790;9.620;2022-12-18T00:51:55;-4.70;1.00
19242;DHT22;9755;47.790;9.620;2022-12-18T00:54:23;-4.80;1.00
19242;DHT22;9755;47.790;9.620;2022-12-18T00:56:50;-4.80;1.00
19242;DHT22;9755;47.790;9.620;2022-12-18T00:59:17;-4.80;1.00
19242;DHT22;9755;47.790;9.620;2022-12-18T01:01:45;-4.80;1.00
19242;DHT22;9755;47.790;9.620;2022-12-18T01:04:13;-4.80;1.00
19242;DHT22;9755;47.790;9.620;2022-12-18T01:06:40;-4.80;1.00
19242;DHT22;9755;47.790;9.620;2022-12-18T01:09:07;-4.80;1.00
19242;DHT22;9755;47.790;9.620;2022-12-18T01:11:34;-4.80;1.00
19242;DHT22;9755;47.790;9.620;2022-12-18T01:14:02;-4.80;1.00
19242;DHT22;9755;47.790;9.620;2022-12-18T01:16:29;-4.80;1.00
19242;DHT22;9755;47.790;9.620;2022-12-18T01:18:56;-4.80;1.00
19242;DHT22;9755;47.790;9.620;2022-12-18T01:21:24;-4.80;1.00
19242;DHT22;9755;47.790;9.620;2022-12-18T01:23:53;-4.80;1.00
19242;DHT22;9755;47.790;9.620;2022-12-18T01:26:20;-4.80;1.00
19242;DHT22;9755;47.790;9.620;2022-12-18T01:28:47;-4.80;1.00
19242;DHT22;9755;47.790;9.620;2022-12-18T01:31:18;-4.80;1.00
19242;DHT22;9755;47.790;9.620;2022-12-18T01:33:45;-4.80;1.00
19242;DHT22;9755;47.790;9.620;2022-12-18T01:36:17;-4.80;1.00
19242;DHT22;9755;47.790;9.620;2022-12-18T01:38:46;-4.80;1.00
19242;DHT22;9755;47.790;9.620;2022-12-18T01:41:15;-4.80;1.00
19242;DHT22;9755;47.790;9.620;2022-12-18T01:43:51;-4.80;1.00
19242;DHT22;9755;47.790;9.620;2022-12-18T01:46:21;-4.80;1.00
19242;DHT22;9755;47.790;9.620;2022-12-18T01:48:52;-4.80;1.00
19242;DHT22;9755;47.790;9.620;2022-12-18T01:51:20;-4.80;1.00
19242;DHT22;9755;47.790;9.620;2022-12-18T01:53:49;-4.80;1.00
19242;DHT22;9755;47.790;9.620;2022-12-18T01:56:19;-4.90;1.00
19242;DHT22;9755;47.790;9.620;2022-12-18T01:58:52;-4.90;1.00
19242;DHT22;9755;47.790;9.620;2022-12-18T02:01:20;-4.90;1.00
19242;DHT22;9755;47.790;9.620;2022-12-18T02:03:49;-4.90;1.00
19242;DHT22;9755;47.790;9.620;2022-12-18T02:06:20;-4.90;1.00
19242;DHT22;9755;47.790;9.620;2022-12-18T02:08:58;-4.90;1.00
19242;DHT22;9755;47.790;9.620;2022-12-18T02:11:37;-4.80;47.20
19242;DHT22;9755;47.790;9.620;2022-12-18T02:14:15;-4.80;14.00
19242;DHT22;9755;47.790;9.620;2022-12-18T02:16:48;-4.80;1.00
19242;DHT22;9755;47.790;9.620;2022-12-18T02:19:33;-4.90;1.00
19242;DHT22;9755;47.790;9.620;2022-12-18T02:22:12;-4.90;1.00
19242;DHT22;9755;47.790;9.620;2022-12-18T02:24:54;-5.00;1.00
19242;DHT22;9755;47.790;9.620;2022-12-18T02:27:28;-5.10;1.00
19242;DHT22;9755;47.790;9.620;2022-12-18T02:29:57;-5.20;1.00
19242;DHT22;9755;47.790;9.620;2022-12-18T02:32:28;-5.20;1.00
19242;DHT22;9755;47.790;9.620;2022-12-18T02:34:57;-5.20;1.00
19242;DHT22;9755;47.790;9.620;2022-12-18T02:37:27;-5.20;1.00
19242;DHT22;9755;47.790;9.620;2022-12-18T02:39:56;-5.20;1.00
19242;DHT22;9755;47.790;9.620;2022-12-18T02:42:24;-5.20;2.20
19242;DHT22;9755;47.790;9.620;2022-12-18T02:44:53;-5.20;1.00
19242;DHT22;9755;47.790;9.620;2022-12-18T02:47:29;-5.20;1.00
19242;DHT22;9755;47.790;9.620;2022-12-18T02:50:04;-5.20;1.00
19242;DHT22;9755;47.790;9.620;2022-12-18T02:52:41;-5.20;1.00
19242;DHT22;9755;47.790;9.620;2022-12-18T02:55:18;-5.20;1.00
19242;DHT22;9755;47.790;9.620;2022-12-18T02:57:55;-5.30;1.00
19242;DHT22;9755;47.790;9.620;2022-12-18T03:00:30;-5.30;1.00
19242;DHT22;9755;47.790;9.620;2022-12-18T03:03:03;-5.30;46.50
19242;DHT22;9755;47.790;9.620;2022-12-18T03:05:36;-5.20;99.90
19242;DHT22;9755;47.790;9.620;2022-12-18T03:08:07;-5.20;1.00
19242;DHT22;9755;47.790;9.620;2022-12-18T03:10:40;-5.30;1.00
19242;DHT22;9755;47.790;9.620;2022-12-18T03:13:13;-5.30;1.00
19242;DHT22;9755;47.790;9.620;2022-12-18T03:15:45;-5.40;1.00
19242;DHT22;9755;47.790;9.620;2022-12-18T03:18:17;-5.40;1.00
19242;DHT22;9755;47.790;9.620;2022-12-18T03:20:47;-5.50;1.00
19242;DHT22;9755;47.790;9.620;2022-12-18T03:23:19;-5.40;1.00
19242;DHT22;9755;47.790;9.620;2022-12-18T03:25:50;-5.50;1.00
19242;DHT22;9755;47.790;9.620;2022-12-18T03:28:20;-5.50;1.00
19242;DHT22;9755;47.790;9.620;2022-12-18T03:30:55;-5.50;1.00
19242;DHT22;9755;47.790;9.620;2022-12-18T03:33:26;-5.50;17.90
19242;DHT22;9755;47.790;9.620;2022-12-18T03:35:54;-5.50;70.10
19242;DHT22;9755;47.790;9.620;2022-12-18T03:38:22;-5.40;99.90
19242;DHT22;9755;47.790;9.620;2022-12-18T03:40:56;-5.50;41.20
19242;DHT22;9755;47.790;9.620;2022-12-18T03:43:35;-5.50;1.00
19242;DHT22;9755;47.790;9.620;2022-12-18T03:46:09;-5.50;24.50
19242;DHT22;9755;47.790;9.620;2022-12-18T03:48:43;-5.50;1.00
19242;DHT22;9755;47.790;9.620;2022-12-18T03:51:16;-5.50;1.00
19242;DHT22;9755;47.790;9.620;2022-12-18T03:53:49;-5.50;1.00
19242;DHT22;9755;47.790;9.620;2022-12-18T03:56:18;-5.50;1.00
19242;DHT22;9755;47.790;9.620;2022-12-18T03:58:46;-5.50;1.00
19242;DHT22;9755;47.790;9.620;2022-12-18T04:01:16;-5.70;1.00
19242;DHT22;9755;47.790;9.620;2022-12-18T04:03:46;-5.70;1.00
19242;DHT22;9755;47.790;9.620;2022-12-18T04:06:15;-5.70;1.00
19242;DHT22;9755;47.790;9.620;2022-12-18T04:08:43;-5.70;1.00
19242;DHT22;9755;47.790;9.620;2022-12-18T04:11:10;-5.80;1.00
19242;DHT22;9755;47.790;9.620;2022-12-18T04:13:38;-5.70;1.00
19242;DHT22;9755;47.790;9.620;2022-12-18T04:16:06;-5.80;1.00
19242;DHT22;9755;47.790;9.620;2022-12-18T04:18:36;-5.80;1.00
19242;DHT22;9755;47.790;9.620;2022-12-18T04:21:03;-5.80;1.00
19242;DHT22;9755;47.790;9.620;2022-12-18T04:23:30;-5.80;1.00
19242;DHT22;9755;47.790;9.620;2022-12-18T04:25:57;-5.80;1.00
19242;DHT22;9755;47.790;9.620;2022-12-18T04:28:24;-5.80;1.00
19242;DHT22;9755;47.790;9.620;2022-12-18T04:30:51;-5.80;17.90
19242;DHT22;9755;47.790;9.620;2022-12-18T04:33:19;-5.80;49.40
19242;DHT22;9755;47.790;9.620;2022-12-18T04:35:47;-5.90;55.30
19242;DHT22;9755;47.790;9.620;2022-12-18T04:38:14;-5.80;95.70
19242;DHT22;9755;47.790;9.620;2022-12-18T04:40:41;-5.80;52.20
19242;DHT22;9755;47.790;9.620;2022-12-18T04:43:09;-5.80;48.10
19242;DHT22;9755;47.790;9.620;2022-12-18T04:45:36;-5.80;1.00
19242;DHT22;9755;47.790;9.620;2022-12-18T04:48:04;-5.80;1.00
19242;DHT22;9755;47.790;9.620;2022-12-18T04:50:31;-5.70;1.00
19242;DHT22;9755;47.790;9.620;2022-12-18T04:53:00;-5.80;1.00
19242;DHT22;9755;47.790;9.620;2022-12-18T04:55:27;-5.70;1.00
19242;DHT22;9755;47.790;9.620;2022-12-18T04:57:54;-5.80;1.00
19242;DHT22;9755;47.790;9.620;2022-12-18T05:00:22;-5.90;99.90
19242;DHT22;9755;47.790;9.620;2022-12-18T05:02:49;-5.90;99.90
19242;DHT22;9755;47.790;9.620;2022-12-18T05:05:16;-5.90;99.90
19242;DHT22;9755;47.790;9.620;2022-12-18T05:07:43;-5.80;1.00
19242;DHT22;9755;47.790;9.620;2022-12-18T05:10:12;-5.70;1.00
19242;DHT22;9755;47.790;9.620;2022-12-18T05:12:39;-5.70;99.90
19242;DHT22;9755;47.790;9.620;2022-12-18T05:15:24;-5.80;99.90
19242;DHT22;9755;47.790;9.620;2022-12-18T05:17:51;-5.70;99.90
19242;DHT22;9755;47.790;9.620;2022-12-18T05:20:18;-5.70;99.90
19242;DHT22;9755;47.790;9.620;2022-12-18T05:22:45;-5.70;1.00
19242;DHT22;9755;47.790;9.620;2022-12-18T05:25:14;-5.70;1.00
19242;DHT22;9755;47.790;9.620;2022-12-18T05:27:41;-5.70;1.00
19242;DHT22;9755;47.790;9.620;2022-12-18T05:30:09;-5.80;1.00
19242;DHT22;9755;47.790;9.620;2022-12-18T05:32:36;-5.80;1.00
19242;DHT22;9755;47.790;9.620;2022-12-18T05:35:06;-5.80;1.00
19242;DHT22;9755;47.790;9.620;2022-12-18T05:37:34;-5.80;1.00
19242;DHT22;9755;47.790;9.620;2022-12-18T05:40:01;-5.70;1.00
19242;DHT22;9755;47.790;9.620;2022-12-18T05:42:30;-5.70;1.00
19242;DHT22;9755;47.790;9.620;2022-12-18T05:45:03;-5.80;1.00
19242;DHT22;9755;47.790;9.620;2022-12-18T05:47:30;-5.80;1.00
19242;DHT22;9755;47.790;9.620;2022-12-18T05:49:57;-5.70;1.00
19242;DHT22;9755;47.790;9.620;2022-12-18T05:52:24;-5.80;99.90
19242;DHT22;9755;47.790;9.620;2022-12-18T05:54:51;-5.70;99.90
19242;DHT22;9755;47.790;9.620;2022-12-18T05:57:18;-5.70;99.90
19242;DHT22;9755;47.790;9.620;2022-12-18T05:59:46;-5.60;99.90
19242;DHT22;9755;47.790;9.620;2022-12-18T06:02:13;-5.60;99.90
19242;DHT22;9755;47.790;9.620;2022-12-18T06:04:40;-5.60;99.90
19242;DHT22;9755;47.790;9.620;2022-12-18T06:07:07;-5.50;99.90
19242;DHT22;9755;47.790;9.620;2022-12-18T06:09:34;-5.50;99.90
19242;DHT22;9755;47.790;9.620;2022-12-18T06:12:02;-5.50;99.90
19242;DHT22;9755;47.790;9.620;2022-12-18T06:14:29;-5.50;1.00
19242;DHT22;9755;47.790;9.620;2022-12-18T06:16:57;-5.40;1.00
19242;DHT22;9755;47.790;9.620;2022-12-18T06:19:24;-5.30;1.00
19242;DHT22;9755;47.790;9.620;2022-12-18T06:21:51;-5.40;1.00
19242;DHT22;9755;47.790;9.620;2022-12-18T06:24:18;-5.40;1.00
19242;DHT22;9755;47.790;9.620;2022-12-18T06:26:45;-5.30;1.00
19242;DHT22;9755;47.790;9.620;2022-12-18T06:29:12;-5.30;1.00
19242;DHT22;9755;47.790;9.620;2022-12-18T06:31:39;-5.20;1.00
19242;DHT22;9755;47.790;9.620;2022-12-18T06:34:08;-5.30;71.20
19242;DHT22;9755;47.790;9.620;2022-12-18T06:36:35;-5.40;1.00
19242;DHT22;9755;47.790;9.620;2022-12-18T06:39:02;-5.30;1.00
19242;DHT22;9755;47.790;9.620;2022-12-18T06:41:29;-5.30;1.00
19242;DHT22;9755;47.790;9.620;2022-12-18T06:43:57;-5.30;2.70
19242;DHT22;9755;47.790;9.620;2022-12-18T06:46:24;-5.30;1.00
19242;DHT22;9755;47.790;9.620;2022-12-18T06:48:51;-5.30;1.00
19242;DHT22;9755;47.790;9.620;2022-12-18T06:51:22;-5.30;99.90
19242;DHT22;9755;47.790;9.620;2022-12-18T06:53:50;-5.20;99.90
19242;DHT22;9755;47.790;9.620;2022-12-18T06:56:17;-5.20;99.90
19242;DHT22;9755;47.790;9.620;2022-12-18T06:58:44;-5.30;1.00
19242;DHT22;9755;47.790;9.620;2022-12-18T07:01:12;-5.30;1.00
19242;DHT22;9755;47.790;9.620;2022-12-18T07:03:40;-5.30;14.50
19242;DHT22;9755;47.790;9.620;2022-12-18T07:06:13;-5.30;1.00
19242;DHT22;9755;47.790;9.620;2022-12-18T07:08:43;-5.30;1.00
19242;DHT22;9755;47.790;9.620;2022-12-18T07:11:10;-5.30;1.00
19242;DHT22;9755;47.790;9.620;2022-12-18T07:13:37;-5.30;1.00
19242;DHT22;9755;47.790;9.620;2022-12-18T07:16:06;-5.30;1.00
19242;DHT22;9755;47.790;9.620;2022-12-18T07:18:34;-5.20;99.90
19242;DHT22;9755;47.790;9.620;2022-12-18T07:21:03;-5.30;99.90
19242;DHT22;9755;47.790;9.620;2022-12-18T07:23:32;-5.30;99.90
19242;DHT22;9755;47.790;9.620;2022-12-18T07:26:03;-5.30;1.00
19242;DHT22;9755;47.790;9.620;2022-12-18T07:28:30;-5.20;1.00
19242;DHT22;9755;47.790;9.620;2022-12-18T07:30:58;-5.20;1.00
19242;DHT22;9755;47.790;9.620;2022-12-18T07:33:25;-5.10;1.00
19242;DHT22;9755;47.790;9.620;2022-12-18T07:35:52;-5.20;1.00
19242;DHT22;9755;47.790;9.620;2022-12-18T07:38:19;-5.20;99.90
19242;DHT22;9755;47.790;9.620;2022-12-18T07:40:46;-5.20;99.90
19242;DHT22;9755;47.790;9.620;2022-12-18T07:43:15;-5.20;99.90
19242;DHT22;9755;47.790;9.620;2022-12-18T07:45:42;-5.20;42.40
19242;DHT22;9755;47.790;9.620;2022-12-18T07:48:10;-5.20;84.40
19242;DHT22;9755;47.790;9.620;2022-12-18T07:50:37;-5.20;1.00
19242;DHT22;9755;47.790;9.620;2022-12-18T07:53:04;-5.20;1.00
19242;DHT22;9755;47.790;9.620;2022-12-18T07:55:31;-5.10;1.00
19242;DHT22;9755;47.790;9.620;2022-12-18T07:58:01;-5.00;1.00
19242;DHT22;9755;47.790;9.620;2022-12-18T08:00:31;-5.00;1.00
19242;DHT22;9755;47.790;9.620;2022-12-18T08:02:58;-5.00;1.00
19242;DHT22;9755;47.790;9.620;2022-12-18T08:05:25;-4.90;1.00
19242;DHT22;9755;47.790;9.620;2022-12-18T08:07:52;-4.90;1.00
19242;DHT22;9755;47.790;9.620;2022-12-18T08:10:20;-4.80;1.00
19242;DHT22;9755;47.790;9.620;2022-12-18T08:12:49;-4.80;99.90
19242;DHT22;9755;47.790;9.620;2022-12-18T08:15:17;-4.80;99.90
19242;DHT22;9755;47.790;9.620;2022-12-18T08:17:45;-4.70;99.90
19242;DHT22;9755;47.790;9.620;2022-12-18T08:20:12;-4.80;51.20
19242;DHT22;9755;47.790;9.620;2022-12-18T08:22:40;-4.90;1.00
19242;DHT22;9755;47.790;9.620;2022-12-18T08:25:08;-4.90;38.20
19242;DHT22;9755;47.790;9.620;2022-12-18T08:27:35;-4.70;99.90
19242;DHT22;9755;47.790;9.620;2022-12-18T08:30:03;-4.60;1.00
19242;DHT22;9755;47.790;9.620;2022-12-18T08:32:31;-4.60;99.90
19242;DHT22;9755;47.790;9.620;2022-12-18T08:35:00;-4.50;99.90
19242;DHT22;9755;47.790;9.620;2022-12-18T08:37:27;-4.50;99.90
19242;DHT22;9755;47.790;9.620;2022-12-18T08:39:54;-4.40;99.90
19242;DHT22;9755;47.790;9.620;2022-12-18T08:42:21;-4.30;99.90
19242;DHT22;9755;47.790;9.620;2022-12-18T08:45:07;-4.40;1.00
19242;DHT22;9755;47.790;9.620;2022-12-18T08:47:34;-4.30;1.00
19242;DHT22;9755;47.790;9.620;2022-12-18T08:50:03;-4.30;1.00
19242;DHT22;9755;47.790;9.620;2022-12-18T08:52:31;-4.30;1.00
19242;DHT22;9755;47.790;9.620;2022-12-18T08:54:58;-4.30;1.00
19242;DHT22;9755;47.790;9.620;2022-12-18T08:57:25;-4.30;1.00
19242;DHT22;9755;47.790;9.620;2022-12-18T08:59:52;-4.20;1.00
19242;DHT22;9755;47.790;9.620;2022-12-18T09:02:19;-4.10;1.00
19242;DHT22;9755;47.790;9.620;2022-12-18T09:04:47;-4.10;1.00
19242;DHT22;9755;47.790;9.620;2022-12-18T09:07:15;-4.00;1.00
19242;DHT22;9755;47.790;9.620;2022-12-18T09:09:42;-4.00;1.00
19242;DHT22;9755;47.790;9.620;2022-12-18T09:12:09;-3.90;1.00
19242;DHT22;9755;47.790;9.620;2022-12-18T09:14:36;-3.80;1.00
19242;DHT22;9755;47.790;9.620;2022-12-18T09:17:04;-3.90;99.90
19242;DHT22;9755;47.790;9.620;2022-12-18T09:19:31;-3.80;99.90
19242;DHT22;9755;47.790;9.620;2022-12-18T09:21:58;-3.80;99.90
19242;DHT22;9755;47.790;9.620;2022-12-18T09:24:27;-3.80;99.90
19242;DHT22;9755;47.790;9.620;2022-12-18T09:26:54;-3.70;99.90
19242;DHT22;9755;47.790;9.620;2022-12-18T09:29:21;-3.80;1.00
19242;DHT22;9755;47.790;9.620;2022-12-18T09:31:48;-3.80;1.00
19242;DHT22;9755;47.790;9.620;2022-12-18T09:34:16;-3.80;1.00
19242;DHT22;9755;47.790;9.620;2022-12-18T09:36:43;-3.70;1.00
19242;DHT22;9755;47.790;9.620;2022-12-18T09:39:10;-3.70;1.00
19242;DHT22;9755;47.790;9.620;2022-12-18T09:41:45;-3.60;1.00
19242;DHT22;9755;47.790;9.620;2022-12-18T09:44:24;-3.50;1.00
19242;DHT22;9755;47.790;9.620;2022-12-18T09:47:04;-3.40;1.00
19242;DHT22;9755;47.790;9.620;2022-12-18T09:49:38;-3.40;1.00
19242;DHT22;9755;47.790;9.620;2022-12-18T09:52:11;-3.40;1.00
19242;DHT22;9755;47.790;9.620;2022-12-18T09:54:41;-3.30;1.00
19242;DHT22;9755;47.790;9.620;2022-12-18T09:57:14;-3.20;1.00
19242;DHT22;9755;47.790;9.620;2022-12-18T09:59:42;-3.10;1.00
19242;DHT22;9755;47.790;9.620;2022-12-18T10:02:16;-3.10;1.00
19242;DHT22;9755;47.790;9.620;2022-12-18T10:04:46;-3.20;99.90
19242;DHT22;9755;47.790;9.620;2022-12-18T10:07:19;-3.30;99.90
19242;DHT22;9755;47.790;9.620;2022-12-18T10:09:57;-3.20;1.00
19242;DHT22;9755;47.790;9.620;2022-12-18T10:12:30;-3.10;1.00
19242;DHT22;9755;47.790;9.620;2022-12-18T10:15:04;-2.90;1.00
19242;DHT22;9755;47.790;9.620;2022-12-18T10:17:39;-2.70;1.00
19242;DHT22;9755;47.790;9.620;2022-12-18T10:20:13;-2.60;99.90
19242;DHT22;9755;47.790;9.620;2022-12-18T10:22:53;-2.60;99.90
19242;DHT22;9755;47.790;9.620;2022-12-18T10:25:24;-2.60;99.90
19242;DHT22;9755;47.790;9.620;2022-12-18T10:27:57;-2.50;99.90
19242;DHT22;9755;47.790;9.620;2022-12-18T10:30:26;-2.40;99.90
19242;DHT22;9755;47.790;9.620;2022-12-18T10:32:53;-2.50;99.90
19242;DHT22;9755;47.790;9.620;2022-12-18T10:35:23;-2.60;99.90
19242;DHT22;9755;47.790;9.620;2022-12-18T10:38:02;-2.50;99.90
19242;DHT22;9755;47.790;9.620;2022-12-18T10:40:30;-2.40;99.90
19242;DHT22;9755;47.790;9.620;2022-12-18T10:43:10;-2.50;99.90
19242;DHT22;9755;47.790;9.620;2022-12-18T10:45:38;-2.50;99.90
19242;DHT22;9755;47.790;9.620;2022-12-18T10:48:17;-2.60;99.90
19242;DHT22;9755;47.790;9.620;2022-12-18T10:50:48;-2.50;99.90
19242;DHT22;9755;47.790;9.620;2022-12-18T10:53:22;-2.50;99.90
19242;DHT22;9755;47.790;9.620;2022-12-18T10:55:52;-2.50;97.00
19242;DHT22;9755;47.790;9.620;2022-12-18T10:58:24;-2.70;99.90
19242;DHT22;9755;47.790;9.620;2022-12-18T11:01:03;-2.60;99.90
19242;DHT22;9755;47.790;9.620;2022-12-18T11:03:33;-2.50;99.90
19242;DHT22;9755;47.790;9.620;2022-12-18T11:06:03;-2.40;99.90
19242;DHT22;9755;47.790;9.620;2022-12-18T11:08:31;-2.40;99.90
19242;DHT22;9755;47.790;9.620;2022-12-18T11:10:58;-2.20;99.90
19242;DHT22;9755;47.790;9.620;2022-12-18T11:13:28;-2.20;99.90
19242;DHT22;9755;47.790;9.620;2022-12-18T11:15:56;-2.10;45.00
19242;DHT22;9755;47.790;9.620;2022-12-18T11:18:26;-2.30;46.80
19242;DHT22;9755;47.790;9.620;2022-12-18T11:20:56;-2.30;44.10
19242;DHT22;9755;47.790;9.620;2022-12-18T11:23:24;-2.20;99.90
19242;DHT22;9755;47.790;9.620;2022-12-18T11:25:54;-2.00;99.90
19242;DHT22;9755;47.790;9.620;2022-12-18T11:28:28;-1.90;99.90
19242;DHT22;9755;47.790;9.620;2022-12-18T11:31:19;-2.00;1.00
19242;DHT22;9755;47.790;9.620;2022-12-18T11:33:53;-2.20;1.00
19242;DHT22;9755;47.790;9.620;2022-12-18T11:36:22;-2.30;74.40
19242;DHT22;9755;47.790;9.620;2022-12-18T11:38:51;-2.30;99.90
19242;DHT22;9755;47.790;9.620;2022-12-18T11:41:23;-2.10;99.90
19242;DHT22;9755;47.790;9.620;2022-12-18T11:44:18;-2.00;99.90
19242;DHT22;9755;47.790;9.620;2022-12-18T11:46:53;-1.80;99.90
19242;DHT22;9755;47.790;9.620;2022-12-18T11:49:24;-1.80;99.90
19242;DHT22;9755;47.790;9.620;2022-12-18T11:51:57;-1.70;99.90
19242;DHT22;9755;47.790;9.620;2022-12-18T11:54:25;-1.90;1.00
19242;DHT22;9755;47.790;9.620;2022-12-18T11:56:58;-1.70;1.00
19242;DHT22;9755;47.790;9.620;2022-12-18T11:59:35;-1.60;1.00
19242;DHT22;9755;47.790;9.620;2022-12-18T12:02:20;-1.70;1.00
19242;DHT22;9755;47.790;9.620;2022-12-18T12:05:00;-1.70;1.00
19242;DHT22;9755;47.790;9.620;2022-12-18T12:07:37;-1.70;1.00
19242;DHT22;9755;47.790;9.620;2022-12-18T12:10:22;-1.90;1.00
19242;DHT22;9755;47.790;9.620;2022-12-18T12:13:20;-2.00;1.00
19242;DHT22;9755;47.790;9.620;2022-12-18T12:16:01;-2.20;1.00
19242;DHT22;9755;47.790;9.620;2022-12-18T12:18:37;-2.00;7.40
19242;DHT22;9755;47.790;9.620;2022-12-18T12:21:13;-1.70;47.80
19242;DHT22;9755;47.790;9.620;2022-12-18T12:23:48;-1.50;99.90
19242;DHT22;9755;47.790;9.620;2022-12-18T12:26:23;-1.50;1.00
19242;DHT22;9755;47.790;9.620;2022-12-18T12:29:01;-1.50;1.00
19242;DHT22;9755;47.790;9.620;2022-12-18T12:31:45;-1.40;1.00
19242;DHT22;9755;47.790;9.620;2022-12-18T12:34:18;-1.40;1.00
19242;DHT22;9755;47.790;9.620;2022-12-18T12:36:57;-1.40;1.00
19242;DHT22;9755;47.790;9.620;2022-12-18T12:39:30;-1.50;1.00
19242;DHT22;9755;47.790;9.620;2022-12-18T12:41:58;-1.60;1.00
19242;DHT22;9755;47.790;9.620;2022-12-18T12:44:45;-1.60;1.00
19242;DHT22;9755;47.790;9.620;2022-12-18T12:47:19;-1.80;1.00
19242;DHT22;9755;47.790;9.620;2022-12-18T12:49:47;-2.30;1.00
19242;DHT22;9755;47.790;9.620;2022-12-18T12:52:17;-3.00;1.00
19242;DHT22;9755;47.790;9.620;2022-12-18T12:54:48;-3.10;99.90
19242;DHT22;9755;47.790;9.620;2022-12-18T12:57:23;-2.70;1.00
19242;DHT22;9755;47.790;9.620;2022-12-18T12:59:57;-2.40;1.00
19242;DHT22;9755;47.790;9.620;2022-12-18T13:02:35;-2.20;1.00
19242;DHT22;9755;47.790;9.620;2022-12-18T13:05:14;-2.00;99.90
19242;DHT22;9755;47.790;9.620;2022-12-18T13:07:49;-2.10;59.70
19242;DHT22;9755;47.790;9.620;2022-12-18T13:10:32;-2.20;37.30
19242;DHT22;9755;47.790;9.620;2022-12-18T13:13:00;-2.10;48.40
19242;DHT22;9755;47.790;9.620;2022-12-18T13:15:36;-2.60;1.00
19242;DHT22;9755;47.790;9.620;2022-12-18T13:18:17;-2.90;96.50
19242;DHT22;9755;47.790;9.620;2022-12-18T13:20:47;-3.00;99.90
19242;DHT22;9755;47.790;9.620;2022-12-18T13:23:33;-2.90;1.00
19242;DHT22;9755;47.790;9.620;2022-12-18T13:26:30;-2.50;1.00
19242;DHT22;9755;47.790;9.620;2022-12-18T13:28:59;-2.20;1.00
19242;DHT22;9755;47.790;9.620;2022-12-18T13:37:55;-2.00;99.90
19242;DHT22;9755;47.790;9.620;2022-12-18T13:40:53;-1.90;99.90
19242;DHT22;9755;47.790;9.620;2022-12-18T13:43:38;-1.70;93.20
19242;DHT22;9755;47.790;9.620;2022-12-18T13:46:22;-1.60;99.90
19242;DHT22;9755;47.790;9.620;2022-12-18T13:48:52;-1.80;1.00
19242;DHT22;9755;47.790;9.620;2022-12-18T13:51:22;-1.60;1.00
19242;DHT22;9755;47.790;9.620;2022-12-18T13:53:52;-1.80;1.00
19242;DHT22;9755;47.790;9.620;2022-12-18T13:56:23;-1.80;1.00
19242;DHT22;9755;47.790;9.620;2022-12-18T13:59:13;-1.80;1.00
19242;DHT22;9755;47.790;9.620;2022-12-18T14:01:50;-2.00;1.00
19242;DHT22;9755;47.790;9.620;2022-12-18T14:04:24;-2.00;1.00
19242;DHT22;9755;47.790;9.620;2022-12-18T14:06:56;-2.00;1.00
19242;DHT22;9755;47.790;9.620;2022-12-18T14:09:26;-2.00;1.00
19242;DHT22;9755;47.790;9.620;2022-12-18T14:11:56;-2.00;1.00
19242;DHT22;9755;47.790;9.620;2022-12-18T14:14:41;-2.00;1.00
19242;DHT22;9755;47.790;9.620;2022-12-18T14:17:10;-1.90;61.50
19242;DHT22;9755;47.790;9.620;2022-12-18T14:19:40;-1.90;99.90
19242;DHT22;9755;47.790;9.620;2022-12-18T14:22:15;-1.80;99.90
19242;DHT22;9755;47.790;9.620;2022-12-18T14:24:43;-1.80;94.10
19242;DHT22;9755;47.790;9.620;2022-12-18T14:27:22;-1.90;90.20
19242;DHT22;9755;47.790;9.620;2022-12-18T14:29:49;-1.90;99.90
19242;DHT22;9755;47.790;9.620;2022-12-18T14:32:17;-1.90;99.90
19242;DHT22;9755;47.790;9.620;2022-12-18T14:34:46;-1.90;99.90
19242;DHT22;9755;47.790;9.620;2022-12-18T14:37:17;-2.00;99.90
19242;DHT22;9755;47.790;9.620;2022-12-18T14:39:55;-2.10;99.90
19242;DHT22;9755;47.790;9.620;2022-12-18T14:42:23;-2.20;99.90
19242;DHT22;9755;47.790;9.620;2022-12-18T14:47:53;-2.30;99.90
19242;DHT22;9755;47.790;9.620;2022-12-18T14:50:20;-2.40;1.00
19242;DHT22;9755;47.790;9.620;2022-12-18T14:52:49;-2.40;1.00
19242;DHT22;9755;47.790;9.620;2022-12-18T14:55:17;-2.50;1.00
19242;DHT22;9755;47.790;9.620;2022-12-18T14:57:44;-2.50;1.00
19242;DHT22;9755;47.790;9.620;2022-12-18T15:00:16;-2.70;1.00
19242;DHT22;9755;47.790;9.620;2022-12-18T15:02:45;-2.60;1.00
19242;DHT22;9755;47.790;9.620;2022-12-18T15:05:19;-2.60;99.90
19242;DHT22;9755;47.790;9.620;2022-12-18T15:07:50;-2.60;99.90
19242;DHT22;9755;47.790;9.620;2022-12-18T15:10:19;-2.70;99.90
19242;DHT22;9755;47.790;9.620;2022-12-18T15:12:48;-2.60;1.00
19242;DHT22;9755;47.790;9.620;2022-12-18T15:15:49;-2.60;1.00
19242;DHT22;9755;47.790;9.620;2022-12-18T15:18:18;-2.80;1.00
19242;DHT22;9755;47.790;9.620;2022-12-18T15:20:49;-2.70;1.00
19242;DHT22;9755;47.790;9.620;2022-12-18T15:23:20;-2.80;1.00
19242;DHT22;9755;47.790;9.620;2022-12-18T15:25:53;-2.80;1.00
19242;DHT22;9755;47.790;9.620;2022-12-18T15:28:26;-2.90;1.00
19242;DHT22;9755;47.790;9.620;2022-12-18T15:31:06;-2.90;99.90
19242;DHT22;9755;47.790;9.620;2022-12-18T15:33:35;-2.90;99.90
19242;DHT22;9755;47.790;9.620;2022-12-18T15:36:04;-2.90;99.90
19242;DHT22;9755;47.790;9.620;2022-12-18T15:38:33;-3.00;99.90
19242;DHT22;9755;47.790;9.620;2022-12-18T15:41:01;-3.10;99.90
19242;DHT22;9755;47.790;9.620;2022-12-18T15:43:28;-3.10;1.00
19242;DHT22;9755;47.790;9.620;2022-12-18T15:46:01;-3.10;1.00
19242;DHT22;9755;47.790;9.620;2022-12-18T15:48:29;-3.10;1.00
19242;DHT22;9755;47.790;9.620;2022-12-18T15:50:57;-3.20;1.00
19242;DHT22;9755;47.790;9.620;2022-12-18T15:53:25;-3.20;99.90
19242;DHT22;9755;47.790;9.620;2022-12-18T15:55:55;-3.20;1.00
19242;DHT22;9755;47.790;9.620;2022-12-18T15:58:40;-3.20;1.00
19242;DHT22;9755;47.790;9.620;2022-12-18T16:01:09;-3.20;1.00
19242;DHT22;9755;47.790;9.620;2022-12-18T16:03:36;-3.30;1.00
19242;DHT22;9755;47.790;9.620;2022-12-18T16:06:03;-3.30;1.00
19242;DHT22;9755;47.790;9.620;2022-12-18T16:08:31;-3.30;1.00
19242;DHT22;9755;47.790;9.620;2022-12-18T16:11:00;-3.30;1.00
19242;DHT22;9755;47.790;9.620;2022-12-18T16:13:27;-3.30;1.00
19242;DHT22;9755;47.790;9.620;2022-12-18T16:15:54;-3.20;1.00
19242;DHT22;9755;47.790;9.620;2022-12-18T16:18:21;-3.30;1.00
19242;DHT22;9755;47.790;9.620;2022-12-18T16:20:48;-3.40;99.90
19242;DHT22;9755;47.790;9.620;2022-12-18T16:23:15;-3.40;1.00
19242;DHT22;9755;47.790;9.620;2022-12-18T16:25:42;-3.50;1.00
19242;DHT22;9755;47.790;9.620;2022-12-18T16:28:11;-3.50;1.00
19242;DHT22;9755;47.790;9.620;2022-12-18T16:30:38;-3.60;1.00